Time;durP1;ratioP1;P1;durP2;ratioP2;P2;SDS_P1;SDS_P2;PMS_P1;PMS_P2;Temp;Humidity;BMP_temperature;BMP_pressure;BME280_temperature;BME280_humidity;BME280_pressure;Samples;Min_cycle;Max_cycle;Signal;HPM_P1;HPM_P2
2022/09/04 00:01:12;;;;;;;3.37;2.07;;;18.90;99.90;;;;;;5065851;28;20877;-79
2022/09/04 00:03:47;;;;;;;2.40;1.80;;;18.90;99.90;;;;;;5065171;28;20514;-78
2022/09/04 00:06:18;;;;;;;3.43;1.80;;;18.80;99.90;;;;;;5066658;28;20447;-79
2022/09/04 00:09:03;;;;;;;3.80;2.20;;;18.80;99.90;;;;;;5066154;28;20479;-79
2022/09/04 00:11:40;;;;;;;3.37;2.10;;;18.70;99.90;;;;;;5066023;28;20569;-79
2022/09/04 00:14:13;;;;;;;3.53;2.57;;;18.70;99.90;;;;;;5065494;28;20486;-79
2022/09/04 00:16:45;;;;;;;3.60;2.03;;;18.70;99.90;;;;;;5065518;28;20459;-78
2022/09/04 00:19:18;;;;;;;2.90;2.10;;;18.60;99.90;;;;;;5065229;28;20502;-78
2022/09/04 00:21:50;;;;;;;4.50;2.27;;;18.60;99.90;;;;;;5065601;28;20883;-80
2022/09/04 00:24:21;;;;;;;2.60;1.70;;;18.60;99.90;;;;;;5048857;28;20483;-78
2022/09/04 00:26:56;;;;;;;3.40;2.10;;;18.60;99.90;;;;;;5047059;28;20487;-79
2022/09/04 00:29:31;;;;;;;3.33;2.67;;;18.50;99.90;;;;;;5062397;28;20478;-80
2022/09/04 00:32:06;;;;;;;3.33;2.20;;;18.50;99.90;;;;;;5065155;28;20472;-80
2022/09/04 00:34:49;;;;;;;2.70;1.90;;;18.50;99.90;;;;;;5064423;28;20534;-79
2022/09/04 00:37:21;;;;;;;2.73;2.00;;;18.40;99.90;;;;;;5066411;28;20512;-79
2022/09/04 00:39:56;;;;;;;3.13;1.80;;;18.50;99.90;;;;;;5065279;28;20463;-80
2022/09/04 00:42:40;;;;;;;4.67;2.60;;;18.40;99.90;;;;;;5066970;28;20490;-80
2022/09/04 00:45:18;;;;;;;2.50;2.00;;;18.40;99.90;;;;;;5046352;28;20456;-79
2022/09/04 00:48:09;;;;;;;3.73;2.10;;;18.40;99.90;;;;;;5051117;28;20477;-79
2022/09/04 00:51:05;;;;;;;3.47;2.10;;;18.30;99.90;;;;;;5064983;28;20466;-79
2022/09/04 00:53:51;;;;;;;4.37;2.47;;;18.30;99.90;;;;;;5064724;28;20495;-79
2022/09/04 00:56:40;;;;;;;3.13;2.13;;;18.20;99.90;;;;;;5065142;28;20449;-79
2022/09/04 00:59:20;;;;;;;3.00;2.33;;;18.20;99.90;;;;;;5062227;28;20473;-80
2022/09/04 01:01:47;;;;;;;3.23;2.47;;;18.20;99.90;;;;;;5062990;28;20438;-78
2022/09/04 01:04:28;;;;;;;2.80;1.83;;;18.10;99.90;;;;;;5061289;28;20457;-80
2022/09/04 01:07:09;;;;;;;3.20;1.93;;;18.10;99.90;;;;;;5062598;28;20491;-79
2022/09/04 01:10:12;;;;;;;4.03;2.83;;;18.10;99.90;;;;;;5062578;28;20456;-78
2022/09/04 01:12:46;;;;;;;3.00;2.07;;;18.00;99.90;;;;;;5063132;28;20900;-79
2022/09/04 01:15:19;;;;;;;3.40;2.17;;;18.00;99.90;;;;;;5062359;28;20480;-77
2022/09/04 01:18:02;;;;;;;3.60;2.40;;;18.00;99.90;;;;;;5061692;28;20513;-80
2022/09/04 01:21:06;;;;;;;3.53;2.17;;;18.00;99.90;;;;;;5063129;28;20485;-79
2022/09/04 01:24:05;;;;;;;3.13;1.87;;;18.00;99.90;;;;;;5019161;28;20471;-77
2022/09/04 01:26:42;;;;;;;4.73;2.07;;;17.90;99.90;;;;;;5062562;28;20476;-79
2022/09/04 01:29:22;;;;;;;6.50;2.50;;;17.90;99.90;;;;;;5062906;28;20909;-79
2022/09/04 01:31:56;;;;;;;4.43;2.70;;;17.90;99.90;;;;;;5062390;28;20480;-78
2022/09/04 01:34:33;;;;;;;3.63;2.30;;;17.80;99.90;;;;;;5062411;28;20551;-78
2022/09/04 01:37:12;;;;;;;3.43;1.97;;;17.80;99.90;;;;;;5062979;28;20482;-80
2022/09/04 01:39:41;;;;;;;3.70;2.20;;;17.80;99.90;;;;;;5062597;28;20489;-77
2022/09/04 01:42:17;;;;;;;3.13;2.43;;;17.80;99.90;;;;;;5064118;28;20478;-79
2022/09/04 01:44:44;;;;;;;3.83;2.03;;;17.80;99.90;;;;;;5061123;28;20461;-79
2022/09/04 01:47:16;;;;;;;3.13;2.20;;;17.80;99.90;;;;;;5061977;28;20494;-77
2022/09/04 01:49:48;;;;;;;2.73;2.07;;;17.80;99.90;;;;;;5062670;28;20539;-78
2022/09/04 01:52:35;;;;;;;3.70;2.00;;;17.80;99.90;;;;;;5062119;28;20521;-80
2022/09/04 01:55:13;;;;;;;3.60;2.70;;;17.80;99.90;;;;;;5061815;28;20480;-79
2022/09/04 01:57:53;;;;;;;4.27;2.20;;;17.80;99.90;;;;;;5062875;28;20501;-77
2022/09/04 02:00:22;;;;;;;3.50;2.30;;;17.70;99.90;;;;;;5062253;28;20457;-77
2022/09/04 02:03:01;;;;;;;3.90;2.70;;;17.70;99.90;;;;;;5062828;28;20460;-79
2022/09/04 02:05:37;;;;;;;3.53;2.60;;;17.70;99.90;;;;;;5063916;28;20864;-79
2022/09/04 02:08:20;;;;;;;4.13;2.50;;;17.70;99.90;;;;;;5064417;28;20948;-79
2022/09/04 02:10:56;;;;;;;3.60;2.67;;;17.70;99.90;;;;;;5063650;28;20450;-79
2022/09/04 02:13:34;;;;;;;3.90;2.70;;;17.70;99.90;;;;;;5063323;28;20487;-79
2022/09/04 02:16:13;;;;;;;4.30;3.07;;;17.70;99.90;;;;;;5066919;28;21022;-78
2022/09/04 02:18:50;;;;;;;3.00;2.23;;;17.70;99.90;;;;;;5066875;28;20977;-80
2022/09/04 02:21:25;;;;;;;3.07;2.13;;;17.60;99.90;;;;;;5067880;28;20899;-79
2022/09/04 02:24:01;;;;;;;3.33;2.20;;;17.60;99.90;;;;;;5067235;28;20535;-79
2022/09/04 02:26:33;;;;;;;3.90;2.53;;;17.60;99.90;;;;;;5067994;28;20462;-80
2022/09/04 02:29:08;;;;;;;3.37;2.20;;;17.60;99.90;;;;;;5065724;28;20504;-79
2022/09/04 02:31:41;;;;;;;3.83;2.50;;;17.60;99.90;;;;;;5065281;28;20515;-78
2022/09/04 02:34:12;;;;;;;3.97;2.60;;;17.50;99.90;;;;;;5065541;28;20487;-80
2022/09/04 02:36:46;;;;;;;4.30;2.63;;;17.50;99.90;;;;;;5065256;28;20481;-78
2022/09/04 02:39:25;;;;;;;3.40;2.20;;;17.50;99.90;;;;;;5065952;28;20507;-79
2022/09/04 02:42:04;;;;;;;3.33;2.47;;;17.50;99.90;;;;;;5066468;28;20480;-78
2022/09/04 02:44:46;;;;;;;4.40;2.77;;;17.40;99.90;;;;;;5064562;28;20526;-81
2022/09/04 02:47:23;;;;;;;3.40;2.60;;;17.40;99.90;;;;;;5045325;28;20516;-79
2022/09/04 02:49:58;;;;;;;4.90;2.73;;;17.40;99.90;;;;;;5065423;28;20489;-78
2022/09/04 02:52:42;;;;;;;3.53;2.57;;;17.40;99.90;;;;;;5065855;28;20527;-79
2022/09/04 02:55:19;;;;;;;3.10;2.47;;;17.40;99.90;;;;;;5064489;28;20509;-77
2022/09/04 02:57:59;;;;;;;3.67;2.27;;;17.30;99.90;;;;;;5064974;28;20555;-77
2022/09/04 03:00:38;;;;;;;3.03;2.37;;;17.30;99.90;;;;;;5064334;28;20980;-78
2022/09/04 03:03:11;;;;;;;3.97;2.97;;;17.30;99.90;;;;;;5066814;28;20461;-81
2022/09/04 03:05:45;;;;;;;3.37;2.67;;;17.30;99.90;;;;;;5079796;28;20447;-81
2022/09/04 03:08:16;;;;;;;3.97;2.90;;;17.30;99.90;;;;;;5072604;28;20463;-81
2022/09/04 03:10:48;;;;;;;3.50;2.80;;;17.30;99.90;;;;;;5079938;28;20436;-81
2022/09/04 03:13:23;;;;;;;4.50;2.93;;;17.20;99.90;;;;;;5059199;28;20488;-81
2022/09/04 03:15:55;;;;;;;3.80;2.70;;;17.20;99.90;;;;;;5060331;28;20444;-80
2022/09/04 03:18:27;;;;;;;4.30;2.50;;;17.20;99.90;;;;;;5078752;28;20468;-80
2022/09/04 03:20:59;;;;;;;3.10;2.53;;;17.10;99.90;;;;;;5079362;28;20487;-81
2022/09/04 03:23:34;;;;;;;4.23;2.60;;;17.10;99.90;;;;;;5078240;28;20474;-80
2022/09/04 03:26:20;;;;;;;3.90;2.30;;;17.10;99.90;;;;;;5053452;28;20436;-80
2022/09/04 03:28:59;;;;;;;3.17;2.43;;;17.10;99.90;;;;;;5067033;28;20511;-79
2022/09/04 03:31:37;;;;;;;3.40;2.47;;;17.10;99.90;;;;;;5071312;28;20450;-79
2022/09/04 03:34:18;;;;;;;3.50;2.20;;;17.10;99.90;;;;;;5067958;28;20483;-79
2022/09/04 03:37:01;;;;;;;4.87;2.60;;;17.10;99.90;;;;;;5069919;28;20482;-80
2022/09/04 03:39:37;;;;;;;2.90;2.20;;;17.00;99.90;;;;;;5070427;28;20484;-81
2022/09/04 03:42:15;;;;;;;3.57;2.60;;;17.00;99.90;;;;;;5069905;28;20451;-80
2022/09/04 03:44:53;;;;;;;3.10;2.80;;;17.00;99.90;;;;;;5067906;28;20476;-80
2022/09/04 03:47:31;;;;;;;3.20;2.73;;;17.00;99.90;;;;;;5068710;28;20482;-80
2022/09/04 03:50:11;;;;;;;3.77;2.97;;;16.90;99.90;;;;;;5068606;28;20480;-80
2022/09/04 03:52:48;;;;;;;3.80;2.83;;;17.00;99.90;;;;;;5069665;28;20469;-80
2022/09/04 03:55:32;;;;;;;3.43;2.40;;;16.90;99.90;;;;;;5069111;28;20503;-81
2022/09/04 03:58:13;;;;;;;3.80;3.00;;;16.90;99.90;;;;;;5069368;28;20467;-80
2022/09/04 04:00:47;;;;;;;4.67;2.77;;;16.90;99.90;;;;;;5068812;28;20511;-81
2022/09/04 04:03:38;;;;;;;5.63;2.87;;;16.80;99.90;;;;;;5068511;28;20484;-80
2022/09/04 04:06:18;;;;;;;4.30;2.63;;;16.80;99.90;;;;;;5066215;28;20451;-79
2022/09/04 04:09:04;;;;;;;3.57;3.00;;;16.80;99.90;;;;;;5070758;28;20485;-81
2022/09/04 04:11:52;;;;;;;3.50;2.90;;;16.80;99.90;;;;;;5078119;28;20478;-80
2022/09/04 04:14:37;;;;;;;3.80;2.73;;;16.80;99.90;;;;;;5086328;28;20495;-80
2022/09/04 04:17:18;;;;;;;4.00;3.00;;;16.80;99.90;;;;;;5074378;28;20489;-79
2022/09/04 04:20:04;;;;;;;3.00;2.57;;;16.70;99.90;;;;;;5071041;28;20475;-80
2022/09/04 04:22:50;;;;;;;3.33;2.97;;;16.80;99.90;;;;;;5069477;28;20455;-80
2022/09/04 04:25:29;;;;;;;4.60;3.30;;;16.80;99.90;;;;;;5065746;28;20451;-80
2022/09/04 04:28:16;;;;;;;3.60;3.00;;;16.70;99.90;;;;;;5060993;28;20683;-80
2022/09/04 04:30:51;;;;;;;3.67;3.10;;;16.70;99.90;;;;;;5060091;28;20459;-79
2022/09/04 04:33:41;;;;;;;3.30;2.40;;;16.70;99.90;;;;;;5068781;28;20478;-80
2022/09/04 04:36:20;;;;;;;4.20;3.30;;;16.70;99.90;;;;;;5052871;28;20454;-78
2022/09/04 04:39:03;;;;;;;3.83;2.90;;;16.70;99.90;;;;;;5059207;28;20470;-78
2022/09/04 04:42:06;;;;;;;4.40;3.10;;;16.70;99.90;;;;;;5058868;28;20538;-79
2022/09/04 04:48:16;;;;;;;4.00;2.80;;;16.70;99.90;;;;;;5047823;28;20998;-78
2022/09/04 04:50:50;;;;;;;4.27;2.60;;;16.60;99.90;;;;;;5055225;28;20444;-78
2022/09/04 04:53:25;;;;;;;4.10;2.73;;;16.60;99.90;;;;;;5053998;28;20474;-79
2022/09/04 04:55:59;;;;;;;4.60;2.90;;;16.60;99.90;;;;;;5054792;28;20446;-79
2022/09/04 04:58:54;;;;;;;6.00;2.73;;;16.60;99.90;;;;;;5054048;28;20544;-79
2022/09/04 05:01:44;;;;;;;4.60;3.10;;;16.70;99.90;;;;;;5061066;28;20456;-79
2022/09/04 05:04:22;;;;;;;3.63;3.20;;;16.70;99.90;;;;;;5055396;28;20531;-79
2022/09/04 05:06:53;;;;;;;5.57;2.70;;;16.70;99.90;;;;;;5058996;28;20457;-80
2022/09/04 05:09:32;;;;;;;5.63;3.10;;;16.70;99.90;;;;;;5057099;28;20558;-80
2022/09/04 05:12:05;;;;;;;3.97;2.93;;;16.70;99.90;;;;;;5035838;28;20459;-80
2022/09/04 05:14:47;;;;;;;4.63;2.97;;;16.70;99.90;;;;;;5036395;28;21038;-79
2022/09/04 05:17:26;;;;;;;6.47;3.47;;;16.70;99.90;;;;;;5053600;28;20458;-80
2022/09/04 05:20:14;;;;;;;3.70;3.20;;;16.70;99.90;;;;;;5054676;28;20523;-80
2022/09/04 05:22:47;;;;;;;6.50;3.70;;;16.70;99.90;;;;;;5054951;28;20561;-80
2022/09/04 05:25:24;;;;;;;4.37;2.73;;;16.80;99.90;;;;;;5054491;28;20448;-80
2022/09/04 05:28:03;;;;;;;4.17;3.07;;;16.80;99.90;;;;;;5054452;28;20479;-79
2022/09/04 05:30:39;;;;;;;6.17;3.10;;;16.80;99.90;;;;;;5053565;28;20479;-80
2022/09/04 05:33:16;;;;;;;3.63;2.70;;;16.90;99.90;;;;;;5051060;28;20451;-79
2022/09/04 05:35:50;;;;;;;3.70;3.37;;;16.90;99.90;;;;;;5052997;28;20560;-78
2022/09/04 05:38:22;;;;;;;3.47;2.87;;;16.90;99.90;;;;;;5045931;28;20468;-79
2022/09/04 05:41:11;;;;;;;3.90;2.93;;;17.00;99.90;;;;;;5046364;28;20478;-79
2022/09/04 05:43:53;;;;;;;3.53;2.97;;;17.00;99.90;;;;;;5049592;28;20470;-80
2022/09/04 05:46:40;;;;;;;3.87;2.83;;;17.10;99.90;;;;;;5054072;28;20545;-79
2022/09/04 05:49:20;;;;;;;3.93;2.97;;;17.20;99.90;;;;;;5053961;28;20544;-78
2022/09/04 05:52:03;;;;;;;4.10;2.83;;;17.20;99.90;;;;;;5042604;28;20542;-78
2022/09/04 05:54:54;;;;;;;4.30;3.23;;;17.20;99.90;;;;;;5046831;28;20572;-79
2022/09/04 05:57:37;;;;;;;4.00;2.90;;;17.20;99.90;;;;;;5049621;28;20563;-78
2022/09/04 06:00:10;;;;;;;6.50;3.60;;;17.30;99.90;;;;;;5046750;28;20464;-79
2022/09/04 06:03:07;;;;;;;3.40;2.67;;;17.40;99.90;;;;;;5051579;28;20495;-78
2022/09/04 06:05:46;;;;;;;5.30;3.40;;;17.50;99.90;;;;;;5048097;28;20898;-77
2022/09/04 06:08:31;;;;;;;3.00;2.60;;;17.50;99.90;;;;;;5048769;28;20570;-79
2022/09/04 06:11:26;;;;;;;3.47;2.80;;;17.60;99.90;;;;;;5047506;28;20970;-78
2022/09/04 06:14:10;;;;;;;3.10;2.60;;;17.70;99.90;;;;;;5050869;28;20517;-80
2022/09/04 06:17:08;;;;;;;3.90;2.93;;;17.80;99.90;;;;;;5044266;28;20495;-79
2022/09/04 06:19:53;;;;;;;3.73;3.33;;;18.00;99.90;;;;;;5049398;28;20529;-78
2022/09/04 06:22:58;;;;;;;3.73;2.90;;;18.00;99.90;;;;;;5056515;28;20478;-80
2022/09/04 06:25:42;;;;;;;3.53;2.80;;;18.10;99.90;;;;;;5049860;28;20499;-77
2022/09/04 06:28:27;;;;;;;3.60;2.50;;;18.20;99.90;;;;;;5058519;28;20505;-80
2022/09/04 06:31:04;;;;;;;3.43;2.33;;;18.20;99.90;;;;;;5042949;28;20456;-79
2022/09/04 06:33:43;;;;;;;4.17;2.70;;;18.30;99.90;;;;;;5057161;28;20512;-80
2022/09/04 06:36:31;;;;;;;4.57;3.10;;;18.40;99.90;;;;;;5062910;28;20474;-81
2022/09/04 06:39:15;;;;;;;3.00;2.50;;;18.40;99.90;;;;;;5063111;28;20486;-81
2022/09/04 06:42:01;;;;;;;4.57;2.83;;;18.50;99.90;;;;;;5064613;28;20509;-81
2022/09/04 06:44:40;;;;;;;3.60;2.80;;;18.50;99.90;;;;;;5055224;28;20482;-80
2022/09/04 06:47:30;;;;;;;3.30;2.70;;;18.60;99.90;;;;;;5061447;28;20474;-79
2022/09/04 06:50:14;;;;;;;5.40;2.97;;;18.60;99.90;;;;;;5055333;28;20528;-79
2022/09/04 06:52:51;;;;;;;3.20;2.70;;;18.70;99.90;;;;;;5053498;28;20469;-80
2022/09/04 06:55:27;;;;;;;5.00;3.03;;;18.80;99.90;;;;;;5055640;28;20551;-79
2022/09/04 06:58:18;;;;;;;3.17;2.83;;;18.90;99.90;;;;;;5058979;28;20849;-80
2022/09/04 07:00:52;;;;;;;3.40;2.87;;;18.90;99.90;;;;;;5063735;28;20479;-80
2022/09/04 07:03:48;;;;;;;3.07;2.70;;;19.00;99.90;;;;;;5065791;28;20526;-80
2022/09/04 07:06:19;;;;;;;3.23;2.70;;;19.00;99.90;;;;;;5064507;28;20455;-80
2022/09/04 07:09:03;;;;;;;3.50;3.10;;;19.10;99.90;;;;;;5067776;28;20475;-79
2022/09/04 07:11:44;;;;;;;3.43;3.00;;;19.10;99.90;;;;;;5067482;28;20448;-79
2022/09/04 07:14:26;;;;;;;4.43;2.57;;;19.20;99.90;;;;;;5066117;28;20530;-79
2022/09/04 07:17:03;;;;;;;3.00;2.50;;;19.30;99.90;;;;;;5074289;28;20489;-80
2022/09/04 07:20:01;;;;;;;5.37;3.20;;;19.30;99.90;;;;;;5070850;28;20540;-80
2022/09/04 07:22:59;;;;;;;3.37;2.80;;;19.30;99.90;;;;;;5074568;28;20456;-80
2022/09/04 07:25:33;;;;;;;3.00;2.60;;;19.50;99.90;;;;;;5062259;28;20495;-79
2022/09/04 07:28:14;;;;;;;2.70;2.00;;;19.60;99.90;;;;;;5074980;28;20485;-80
2022/09/04 07:30:45;;;;;;;2.50;2.23;;;19.70;99.90;;;;;;5075783;28;20451;-82
2022/09/04 07:33:20;;;;;;;3.23;2.47;;;19.80;99.90;;;;;;5073206;28;20467;-79
2022/09/04 07:35:57;;;;;;;6.03;2.80;;;19.90;99.90;;;;;;5073594;28;20471;-79
2022/09/04 07:38:32;;;;;;;4.30;2.73;;;19.90;99.90;;;;;;5074711;28;21047;-80
2022/09/04 07:43:44;;;;;;;3.60;2.40;;;20.10;99.90;;;;;;5056827;22;20594;-79
2022/09/04 07:46:18;;;;;;;3.33;2.80;;;20.10;99.90;;;;;;5037294;28;20447;-80
2022/09/04 07:48:50;;;;;;;3.37;2.60;;;20.20;99.90;;;;;;5049298;28;20472;-80
2022/09/04 07:51:24;;;;;;;4.13;2.50;;;20.20;99.90;;;;;;5058898;28;20491;-80
2022/09/04 07:54:11;;;;;;;2.87;1.93;;;20.30;99.90;;;;;;5036328;28;20460;-79
2022/09/04 07:56:57;;;;;;;2.87;2.23;;;20.40;99.90;;;;;;5033189;28;20478;-80
2022/09/04 08:00:01;;;;;;;4.50;2.60;;;20.40;99.90;;;;;;5048606;28;20499;-80
2022/09/04 08:02:38;;;;;;;4.70;2.50;;;20.50;99.90;;;;;;5038692;28;20472;-80
2022/09/04 08:05:21;;;;;;;2.90;2.20;;;20.70;99.90;;;;;;5042720;28;20484;-79
2022/09/04 08:08:06;;;;;;;3.57;2.10;;;20.70;99.90;;;;;;5050893;28;20475;-81
2022/09/04 08:10:37;;;;;;;3.50;2.10;;;20.80;99.90;;;;;;5039728;28;20462;-80
2022/09/04 08:13:22;;;;;;;4.30;2.30;;;20.80;99.90;;;;;;5037517;28;20480;-80
2022/09/04 08:16:00;;;;;;;3.73;2.30;;;20.90;99.90;;;;;;5042060;28;20484;-79
2022/09/04 08:18:53;;;;;;;3.43;2.93;;;21.00;99.90;;;;;;5043460;28;20462;-77
2022/09/04 08:21:27;;;;;;;2.67;1.83;;;21.10;99.90;;;;;;5042377;28;20459;-79
2022/09/04 08:24:22;;;;;;;3.47;2.60;;;21.30;99.90;;;;;;5039899;28;20449;-79
2022/09/04 08:27:00;;;;;;;5.73;2.60;;;21.20;99.90;;;;;;5044119;28;20452;-79
2022/09/04 08:29:49;;;;;;;2.93;2.53;;;21.20;99.90;;;;;;5040363;28;20531;-79
2022/09/04 08:32:37;;;;;;;3.60;2.00;;;21.30;99.90;;;;;;5051823;28;20503;-80
2022/09/04 08:35:12;;;;;;;5.23;2.40;;;21.60;99.90;;;;;;5031738;28;20498;-80
2022/09/04 08:37:55;;;;;;;3.97;2.47;;;21.80;99.90;;;;;;5042726;28;20539;-79
2022/09/04 08:40:56;;;;;;;5.10;2.63;;;21.90;99.90;;;;;;5035575;28;20827;-78
2022/09/04 08:43:38;;;;;;;4.30;2.20;;;22.10;99.90;;;;;;5039246;28;20506;-80
2022/09/04 08:46:51;;;;;;;3.10;2.47;;;22.30;99.90;;;;;;5048071;28;20458;-80
2022/09/04 08:50:07;;;;;;;2.83;2.13;;;22.30;99.90;;;;;;5027271;28;20512;-78
2022/09/04 08:53:10;;;;;;;3.30;2.20;;;22.50;99.90;;;;;;5053533;28;20926;-79
2022/09/04 08:55:55;;;;;;;5.47;2.63;;;22.60;99.90;;;;;;5046845;28;20510;-78
2022/09/04 08:59:00;;;;;;;3.27;2.57;;;22.60;99.90;;;;;;5047395;28;20447;-79
2022/09/04 09:01:59;;;;;;;5.13;3.07;;;22.80;99.90;;;;;;5055970;28;20464;-80
2022/09/04 09:05:14;;;;;;;5.27;2.57;;;22.80;99.90;;;;;;4999902;28;20465;-80
2022/09/04 09:08:08;;;;;;;2.77;2.17;;;23.10;99.90;;;;;;5042558;28;20988;-80
2022/09/04 09:11:04;;;;;;;3.57;2.23;;;23.20;99.90;;;;;;5024897;28;20984;-81
2022/09/04 09:14:09;;;;;;;3.30;2.23;;;23.50;99.90;;;;;;5037839;28;20536;-80
2022/09/04 09:16:43;;;;;;;3.13;2.37;;;23.50;99.90;;;;;;5027089;28;20591;-81
2022/09/04 09:19:19;;;;;;;4.90;2.50;;;23.70;99.90;;;;;;5027467;28;20496;-79
2022/09/04 09:21:51;;;;;;;5.30;2.67;;;23.80;99.90;;;;;;5036180;28;20551;-80
2022/09/04 09:24:59;;;;;;;3.20;2.27;;;23.90;99.90;;;;;;5033624;28;21056;-80
2022/09/04 09:28:02;;;;;;;2.90;2.13;;;24.10;99.90;;;;;;5007630;28;20509;-82
2022/09/04 09:30:36;;;;;;;6.60;3.20;;;24.30;99.90;;;;;;5036672;28;20440;-81
2022/09/04 09:33:48;;;;;;;3.30;2.40;;;24.60;99.90;;;;;;5054899;28;20562;-82
2022/09/04 09:36:49;;;;;;;3.10;2.33;;;24.70;99.90;;;;;;5041227;28;20573;-81
2022/09/04 09:39:46;;;;;;;4.00;2.13;;;24.90;99.90;;;;;;5038572;28;20520;-81
2022/09/04 09:42:56;;;;;;;3.20;2.40;;;25.30;99.90;;;;;;5022665;28;20489;-81
2022/09/04 09:46:00;;;;;;;4.00;2.53;;;25.50;99.90;;;;;;5052501;28;20444;-82
2022/09/04 09:48:49;;;;;;;4.83;2.50;;;25.80;99.90;;;;;;5038542;28;20483;-81
2022/09/04 09:51:50;;;;;;;3.93;2.03;;;26.20;99.90;;;;;;5049931;28;20455;-81
2022/09/04 09:54:58;;;;;;;3.97;2.57;;;26.40;99.90;;;;;;5054168;28;20444;-83
2022/09/04 09:58:06;;;;;;;5.40;2.80;;;26.50;99.90;;;;;;5059044;28;20452;-82
2022/09/04 10:00:45;;;;;;;4.97;2.80;;;26.50;99.90;;;;;;5023666;28;20784;-83
2022/09/04 10:03:58;;;;;;;4.03;2.10;;;26.70;99.90;;;;;;5030593;28;20898;-81
2022/09/04 10:07:00;;;;;;;5.33;3.20;;;27.10;99.90;;;;;;4991191;28;20484;-79
2022/09/04 10:09:57;;;;;;;3.67;2.60;;;27.00;99.90;;;;;;5037751;28;20461;-80
2022/09/04 10:13:04;;;;;;;3.50;2.53;;;27.40;99.90;;;;;;5044372;28;20516;-81
2022/09/04 10:16:15;;;;;;;2.70;1.90;;;27.40;99.90;;;;;;5022797;28;20536;-81
2022/09/04 10:19:11;;;;;;;3.43;2.93;;;27.60;99.90;;;;;;5045090;28;20452;-80
2022/09/04 10:22:12;;;;;;;3.47;2.53;;;27.80;99.90;;;;;;5041180;28;20477;-80
2022/09/04 10:25:18;;;;;;;3.53;2.30;;;28.00;99.90;;;;;;5053448;28;20487;-80
2022/09/04 10:28:21;;;;;;;4.10;2.90;;;27.90;99.90;;;;;;5054273;28;20508;-82
2022/09/04 10:31:15;;;;;;;5.80;2.40;;;27.90;99.90;;;;;;5044645;28;20476;-82
2022/09/04 10:34:00;;;;;;;3.27;2.20;;;28.00;99.90;;;;;;5042190;28;20487;-82
2022/09/04 10:36:36;;;;;;;3.23;2.10;;;28.20;99.90;;;;;;5056441;28;20484;-81
2022/09/04 10:42:11;;;;;;;2.93;1.63;;;27.80;99.90;;;;;;5054584;28;20479;-80
2022/09/04 10:44:50;;;;;;;3.07;1.40;;;27.30;99.90;;;;;;5046822;28;20475;-81
2022/09/04 10:47:36;;;;;;;4.40;2.33;;;27.10;99.90;;;;;;5059974;28;20538;-80
2022/09/04 10:50:31;;;;;;;5.40;2.20;;;26.60;99.90;;;;;;5057129;28;20476;-80
2022/09/04 10:53:14;;;;;;;5.37;2.50;;;26.70;99.90;;;;;;5063690;28;20502;-83
2022/09/04 10:56:00;;;;;;;3.40;2.03;;;27.10;99.90;;;;;;5042540;28;20583;-81
2022/09/04 10:58:38;;;;;;;4.93;2.80;;;27.50;99.90;;;;;;5038315;28;20465;-81
2022/09/04 11:01:39;;;;;;;3.90;2.13;;;27.70;99.90;;;;;;5045653;28;21136;-80
2022/09/04 11:04:44;;;;;;;3.10;2.33;;;27.90;99.90;;;;;;5056136;28;20539;-83
2022/09/04 11:07:42;;;;;;;3.53;1.90;;;27.90;99.90;;;;;;5018124;28;20996;-82
2022/09/04 11:10:35;;;;;;;7.20;2.40;;;28.20;99.90;;;;;;5056797;28;20959;-81
2022/09/04 11:13:47;;;;;;;4.60;2.40;;;28.20;99.90;;;;;;5057233;28;20472;-81
2022/09/04 11:16:36;;;;;;;3.40;1.90;;;27.80;99.90;;;;;;5016887;28;20499;-79
2022/09/04 11:19:32;;;;;;;2.73;1.87;;;27.70;99.90;;;;;;5045893;28;20499;-82
2022/09/04 11:22:35;;;;;;;2.83;1.80;;;27.30;99.90;;;;;;5029058;28;20500;-80
2022/09/04 11:25:45;;;;;;;2.90;2.10;;;27.00;99.90;;;;;;5038762;28;20460;-79
2022/09/04 11:28:50;;;;;;;4.27;2.13;;;26.70;99.90;;;;;;5037820;28;20456;-80
2022/09/04 11:31:38;;;;;;;2.80;2.00;;;26.50;99.90;;;;;;5050049;28;20988;-79
2022/09/04 11:34:47;;;;;;;5.40;2.03;;;26.30;99.90;;;;;;5040237;28;20457;-79
2022/09/04 11:37:47;;;;;;;3.17;2.10;;;26.10;99.90;;;;;;5058253;28;20483;-79
2022/09/04 11:40:41;;;;;;;3.37;2.27;;;26.10;99.90;;;;;;5047002;28;20851;-81
2022/09/04 11:43:42;;;;;;;3.30;1.87;;;26.00;99.90;;;;;;5057989;28;20578;-80
2022/09/04 11:46:33;;;;;;;3.30;1.90;;;25.90;99.90;;;;;;5043810;28;20440;-80
2022/09/04 11:49:17;;;;;;;3.90;2.40;;;25.80;99.90;;;;;;5056522;28;20982;-81
2022/09/04 11:52:06;;;;;;;3.00;2.30;;;26.10;99.90;;;;;;5017186;28;20492;-81
2022/09/04 11:55:10;;;;;;;2.83;2.00;;;26.40;99.90;;;;;;5024222;28;20438;-82
2022/09/04 11:57:50;;;;;;;3.57;1.97;;;26.30;99.90;;;;;;5060640;28;20443;-81
2022/09/04 12:00:17;;;;;;;3.50;2.20;;;26.40;99.90;;;;;;5058017;28;20484;-80
2022/09/04 12:03:09;;;;;;;3.33;2.30;;;27.10;99.90;;;;;;5054412;28;20492;-81
2022/09/04 12:05:54;;;;;;;3.03;2.00;;;28.10;99.90;;;;;;5047203;28;20536;-81
2022/09/04 12:08:49;;;;;;;2.63;1.83;;;28.40;99.90;;;;;;5036364;28;20491;-81
2022/09/04 12:11:41;;;;;;;3.33;2.07;;;28.30;99.90;;;;;;5049265;28;20526;-81
2022/09/04 12:14:23;;;;;;;4.77;3.00;;;27.90;99.90;;;;;;5038352;28;20453;-82
2022/09/04 12:17:14;;;;;;;4.40;3.27;;;27.70;99.90;;;;;;5052420;28;20566;-81
2022/09/04 12:20:05;;;;;;;3.73;2.33;;;27.30;99.90;;;;;;5057029;28;20448;-80
2022/09/04 12:23:07;;;;;;;5.47;2.20;;;27.40;99.90;;;;;;5034253;28;20477;-81
2022/09/04 12:26:01;;;;;;;3.63;2.10;;;27.30;99.90;;;;;;5017749;28;20872;-82
2022/09/04 12:29:07;;;;;;;2.93;1.90;;;28.00;99.90;;;;;;5030764;28;20876;-82
2022/09/04 12:32:02;;;;;;;4.07;2.80;;;28.90;99.90;;;;;;5055569;28;21006;-83
2022/09/04 12:34:53;;;;;;;3.10;2.13;;;29.80;99.90;;;;;;5040929;28;20472;-83
2022/09/04 12:37:43;;;;;;;2.97;1.97;;;30.50;99.90;;;;;;5038942;28;20489;-83
2022/09/04 12:40:34;;;;;;;2.90;1.60;;;31.10;99.90;;;;;;5019803;28;20464;-83
2022/09/04 12:43:15;;;;;;;4.70;1.97;;;31.30;99.90;;;;;;5033822;28;20490;-83
2022/09/04 12:45:49;;;;;;;2.50;1.70;;;31.80;99.90;;;;;;5056926;28;20448;-83
2022/09/04 12:48:32;;;;;;;3.70;2.50;;;32.10;99.90;;;;;;5050309;28;20502;-83
2022/09/04 12:51:08;;;;;;;2.67;1.60;;;32.60;99.90;;;;;;5035344;28;20471;-82
2022/09/04 12:53:51;;;;;;;5.23;2.13;;;32.90;99.90;;;;;;5041355;28;20499;-81
2022/09/04 12:56:29;;;;;;;4.83;2.10;;;33.10;99.90;;;;;;5055050;28;20491;-82
2022/09/04 12:59:18;;;;;;;3.83;1.60;;;33.40;99.90;;;;;;5053369;28;20534;-81
2022/09/04 13:01:58;;;;;;;3.53;1.70;;;33.30;99.90;;;;;;5020013;28;20477;-84
2022/09/04 13:04:37;;;;;;;2.67;1.67;;;33.20;99.90;;;;;;5038802;28;20456;-81
2022/09/04 13:07:26;;;;;;;2.70;1.60;;;33.30;99.90;;;;;;5036715;28;20471;-83
2022/09/04 13:10:03;;;;;;;15.23;13.73;;;33.40;99.90;;;;;;5053055;28;20463;-81
2022/09/04 13:12:40;;;;;;;7.60;6.90;;;33.50;99.90;;;;;;5052042;28;20504;-81
2022/09/04 13:15:23;;;;;;;5.13;3.20;;;33.10;99.90;;;;;;5050972;28;20483;-82
2022/09/04 13:18:00;;;;;;;3.13;2.27;;;32.40;99.90;;;;;;5050776;28;20484;-82
2022/09/04 13:20:34;;;;;;;3.07;1.83;;;32.70;99.90;;;;;;5035253;28;20551;-81
2022/09/04 13:23:34;;;;;;;3.53;1.60;;;32.30;99.90;;;;;;5041568;28;20556;-80
2022/09/04 13:26:23;;;;;;;2.90;1.77;;;32.20;99.90;;;;;;5059960;28;20484;-82
2022/09/04 13:29:03;;;;;;;5.13;1.80;;;32.30;99.90;;;;;;5054720;28;20452;-82
2022/09/04 13:31:44;;;;;;;3.90;1.90;;;32.30;99.90;;;;;;5055691;28;20891;-82
2022/09/04 13:34:22;;;;;;;3.63;1.90;;;32.50;99.90;;;;;;5035425;28;20580;-82
2022/09/04 13:37:03;;;;;;;3.30;1.47;;;32.90;99.90;;;;;;5036500;28;21022;-83
2022/09/04 13:40:06;;;;;;;3.00;1.47;;;33.00;99.90;;;;;;5022351;28;20896;-84
2022/09/04 13:43:07;;;;;;;4.07;2.13;;;33.00;99.90;;;;;;4997987;28;21024;-83
2022/09/04 13:45:38;;;;;;;2.70;1.87;;;33.10;99.90;;;;;;5029543;28;20463;-83
2022/09/04 13:48:08;;;;;;;4.03;2.10;;;32.80;99.90;;;;;;5044714;28;20495;-83
2022/09/04 13:50:41;;;;;;;3.20;2.20;;;32.20;99.90;;;;;;5055248;28;20482;-85
2022/09/04 13:53:16;;;;;;;3.23;1.70;;;32.00;99.90;;;;;;5086015;22;20577;-81
2022/09/04 13:55:49;;;;;;;3.00;2.10;;;32.10;99.90;;;;;;5079171;28;20474;-82
2022/09/04 13:58:19;;;;;;;3.80;1.57;;;31.80;99.90;;;;;;5066776;28;20455;-83
2022/09/04 14:00:48;;;;;;;4.47;2.00;;;31.50;99.90;;;;;;5068854;28;20487;-83
2022/09/04 14:03:30;;;;;;;4.07;2.30;;;31.10;99.90;;;;;;5074745;28;20470;-83
2022/09/04 14:06:01;;;;;;;3.20;1.73;;;30.90;99.90;;;;;;5082980;28;20959;-83
2022/09/04 14:08:30;;;;;;;4.90;2.03;;;30.30;99.90;;;;;;5086812;28;20450;-82
2022/09/04 14:11:24;;;;;;;2.70;1.60;;;30.30;99.90;;;;;;5080074;28;20462;-81
2022/09/04 14:14:22;;;;;;;3.10;1.83;;;29.90;99.90;;;;;;5081818;28;20466;-81
2022/09/04 14:16:53;;;;;;;2.80;1.83;;;29.70;99.90;;;;;;5055039;28;20529;-82
2022/09/04 14:19:34;;;;;;;2.77;1.53;;;29.80;99.90;;;;;;5081630;28;20461;-83
2022/09/04 14:22:20;;;;;;;3.87;1.70;;;30.00;99.90;;;;;;5079798;28;20480;-82
2022/09/04 14:24:59;;;;;;;2.70;1.60;;;30.30;99.90;;;;;;5083079;28;20518;-82